Time;durP1;ratioP1;P1;durP2;ratioP2;P2;SDS_P1;SDS_P2;PMS_P1;PMS_P2;Temp;Humidity;BMP_temperature;BMP_pressure;BME280_temperature;BME280_humidity;BME280_pressure;Samples;Min_cycle;Max_cycle;Signal;HPM_P1;HPM_P2
2022/06/03 00:00:52;;;;;;;;;;;19.70;97.00;;;;;;5075017;28;19912;-53
2022/06/03 00:03:36;;;;;;;;;;;19.70;97.00;;;;;;5073917;28;19913;-52
2022/06/03 00:06:19;;;;;;;;;;;19.70;97.00;;;;;;5074659;28;19908;-53
2022/06/03 00:08:45;;;;;;;;;;;19.80;97.00;;;;;;5074955;28;19909;-54
2022/06/03 00:11:20;;;;;;;;;;;19.80;97.00;;;;;;5074852;28;20413;-53
2022/06/03 00:13:57;;;;;;;;;;;19.70;97.00;;;;;;5057027;28;19942;-53
2022/06/03 00:16:34;;;;;;;;;;;19.70;97.00;;;;;;5056969;28;19956;-54
2022/06/03 00:19:11;;;;;;;;;;;19.80;97.00;;;;;;5074530;28;19909;-50
2022/06/03 00:21:36;;;;;;;;;;;19.70;97.00;;;;;;5074307;28;19919;-51
2022/06/03 00:24:11;;;;;;;;;;;19.80;97.00;;;;;;5074621;28;19912;-51
2022/06/03 00:26:55;;;;;;;;;;;19.80;97.00;;;;;;5074501;28;19908;-51
2022/06/03 00:29:31;;;;;;;;;;;19.70;97.00;;;;;;5074278;28;19908;-52
2022/06/03 00:32:02;;;;;;;;;;;19.70;97.00;;;;;;5056585;28;19947;-52
2022/06/03 00:34:46;;;;;;;;;;;19.70;97.00;;;;;;5074395;28;19934;-53
2022/06/03 00:37:21;;;;;;;;;;;19.70;97.00;;;;;;5074473;28;19995;-50
2022/06/03 00:39:47;;;;;;;;;;;19.70;97.00;;;;;;5074299;28;19908;-48
2022/06/03 00:42:18;;;;;;;;;;;19.80;97.00;;;;;;5074015;28;19923;-49
2022/06/03 00:44:50;;;;;;;;;;;19.80;97.00;;;;;;5074450;28;19908;-52
2022/06/03 00:47:34;;;;;;;;;;;19.70;97.00;;;;;;5056432;28;19909;-49
2022/06/03 00:50:06;;;;;;;;;;;19.80;97.00;;;;;;5073217;28;19915;-50
2022/06/03 00:52:53;;;;;;;;;;;19.70;97.00;;;;;;5074202;28;19912;-51
2022/06/03 00:55:39;;;;;;;;;;;19.80;97.00;;;;;;5074353;28;19924;-51
2022/06/03 00:58:14;;;;;;;;;;;19.70;97.00;;;;;;5074164;28;19909;-53
2022/06/03 01:00:54;;;;;;;;;;;19.70;97.00;;;;;;5073636;28;20026;-52
2022/06/03 01:03:28;;;;;;;;;;;19.70;97.00;;;;;;5073757;28;19916;-51
2022/06/03 01:06:02;;;;;;;;;;;19.70;97.00;;;;;;5074522;28;19912;-51
2022/06/03 01:08:36;;;;;;;;;;;19.70;97.00;;;;;;5074087;28;19908;-53
2022/06/03 01:11:15;;;;;;;;;;;19.70;97.00;;;;;;5073714;28;20428;-52
2022/06/03 01:13:57;;;;;;;;;;;19.80;97.00;;;;;;5074164;28;19916;-50
2022/06/03 01:16:22;;;;;;;;;;;19.70;97.00;;;;;;5074094;28;19915;-51
2022/06/03 01:18:48;;;;;;;;;;;19.70;97.00;;;;;;5073752;28;20309;-51
2022/06/03 01:21:32;;;;;;;;;;;19.70;97.00;;;;;;5073884;28;19913;-50
2022/06/03 01:23:57;;;;;;;;;;;19.70;97.00;;;;;;5073617;28;19912;-52
2022/06/03 01:26:29;;;;;;;;;;;19.70;97.00;;;;;;5073989;28;20428;-51
2022/06/03 01:29:07;;;;;;;;;;;19.70;97.00;;;;;;5073538;28;19915;-53
2022/06/03 01:31:51;;;;;;;;;;;19.80;97.00;;;;;;5073783;28;19935;-51
2022/06/03 01:34:22;;;;;;;;;;;19.70;97.00;;;;;;5073775;28;19913;-52
2022/06/03 01:37:06;;;;;;;;;;;19.70;97.00;;;;;;5073814;28;19962;-52
2022/06/03 01:39:58;;;;;;;;;;;19.70;97.00;;;;;;5073451;28;19913;-53
2022/06/03 01:42:44;;;;;;;;;;;19.80;97.00;;;;;;5034849;28;19939;-54
2022/06/03 01:45:09;;;;;;;;;;;19.70;97.00;;;;;;5022459;28;19919;-53
2022/06/03 01:47:48;;;;;;;;;;;19.80;97.00;;;;;;5073403;28;19908;-54
2022/06/03 01:50:33;;;;;;;;;;;19.70;97.00;;;;;;5073503;28;20291;-51
2022/06/03 01:53:01;;;;;;;;;;;19.70;97.00;;;;;;5073319;28;19954;-50
2022/06/03 01:55:26;;;;;;;;;;;19.70;97.00;;;;;;5073237;28;19920;-51
2022/06/03 01:58:18;;;;;;;;;;;19.70;97.00;;;;;;5073527;28;19954;-48
2022/06/03 02:01:02;;;;;;;;;;;19.70;97.10;;;;;;5075457;28;19919;-51
2022/06/03 02:03:36;;;;;;;;;;;19.70;97.10;;;;;;5077314;28;20352;-49
2022/06/03 02:06:10;;;;;;;;;;;19.70;97.10;;;;;;5077427;28;19999;-50
2022/06/03 02:08:45;;;;;;;;;;;19.70;97.10;;;;;;5059305;28;19999;-53
2022/06/03 02:11:29;;;;;;;;;;;19.80;97.10;;;;;;5077502;28;19916;-53
2022/06/03 02:13:57;;;;;;;;;;;19.70;97.10;;;;;;5076849;28;20356;-50
2022/06/03 02:16:41;;;;;;;;;;;19.70;97.10;;;;;;5077108;28;19908;-53
2022/06/03 02:19:26;;;;;;;;;;;19.70;97.10;;;;;;5076687;28;19909;-49
2022/06/03 02:22:09;;;;;;;;;;;19.70;97.10;;;;;;5076649;28;19920;-52
2022/06/03 02:24:53;;;;;;;;;;;19.70;97.10;;;;;;5076961;28;19913;-51
2022/06/03 02:27:21;;;;;;;;;;;19.70;97.10;;;;;;5076952;28;19913;-53
2022/06/03 02:32:40;;;;;;;;;;;19.70;97.10;;;;;;5076631;28;19915;-53
2022/06/03 02:35:23;;;;;;;;;;;19.70;97.10;;;;;;5076378;28;19915;-53
2022/06/03 02:37:58;;;;;;;;;;;19.70;97.10;;;;;;5076574;28;19965;-51
2022/06/03 02:40:39;;;;;;;;;;;19.70;97.10;;;;;;5076748;28;19959;-52
2022/06/03 02:43:29;;;;;;;;;;;19.70;97.10;;;;;;5076726;28;19938;-53
2022/06/03 02:46:08;;;;;;;;;;;19.70;97.10;;;;;;5077000;28;20356;-52
2022/06/03 02:48:33;;;;;;;;;;;19.70;97.10;;;;;;5076316;28;19908;-52
2022/06/03 02:51:09;;;;;;;;;;;19.70;97.10;;;;;;5076231;28;19919;-50
2022/06/03 02:53:43;;;;;;;;;;;19.70;97.10;;;;;;5076053;28;19915;-54
2022/06/03 02:56:28;;;;;;;;;;;19.70;97.30;;;;;;5076132;28;19912;-52
2022/06/03 02:58:59;;;;;;;;;;;19.70;97.10;;;;;;5076609;28;19908;-54
2022/06/03 03:01:31;;;;;;;;;;;19.70;97.10;;;;;;5075837;28;19919;-54
2022/06/03 03:04:03;;;;;;;;;;;19.70;97.10;;;;;;5075755;28;19912;-51
2022/06/03 03:06:28;;;;;;;;;;;19.70;97.10;;;;;;5075878;28;20315;-53
2022/06/03 03:09:12;;;;;;;;;;;19.70;97.10;;;;;;5075665;28;19923;-54
2022/06/03 03:11:41;;;;;;;;;;;19.70;97.10;;;;;;5075048;28;20363;-54
2022/06/03 03:14:38;;;;;;;;;;;19.70;97.10;;;;;;5058058;28;19948;-52
2022/06/03 03:17:04;;;;;;;;;;;19.70;97.10;;;;;;5020517;28;19908;-51
2022/06/03 03:19:41;;;;;;;;;;;19.70;97.10;;;;;;5058112;28;20313;-50
2022/06/03 03:22:10;;;;;;;;;;;19.70;97.10;;;;;;5075888;28;19982;-54
2022/06/03 03:24:36;;;;;;;;;;;19.70;97.10;;;;;;5076226;28;19912;-50
2022/06/03 03:27:07;;;;;;;;;;;19.70;97.10;;;;;;5075784;28;19970;-53
2022/06/03 03:30:08;;;;;;;;;;;19.70;97.10;;;;;;5075433;28;19909;-54
2022/06/03 03:32:34;;;;;;;;;;;19.70;97.10;;;;;;4974420;28;19910;-51
2022/06/03 03:35:05;;;;;;;;;;;19.70;97.10;;;;;;5053148;28;20007;-52
2022/06/03 03:37:31;;;;;;;;;;;19.70;97.30;;;;;;5075548;28;19962;-50
2022/06/03 03:40:15;;;;;;;;;;;19.70;97.10;;;;;;5075564;28;19913;-53
2022/06/03 03:42:47;;;;;;;;;;;19.70;97.10;;;;;;5075415;28;20359;-52
2022/06/03 03:45:27;;;;;;;;;;;19.70;97.10;;;;;;5075115;28;19954;-52
2022/06/03 03:48:11;;;;;;;;;;;19.70;97.10;;;;;;5075008;28;19954;-53
2022/06/03 03:50:39;;;;;;;;;;;19.70;97.10;;;;;;5075293;28;19952;-53
2022/06/03 03:53:29;;;;;;;;;;;19.80;97.10;;;;;;5075094;28;19908;-52
2022/06/03 03:56:05;;;;;;;;;;;19.80;97.10;;;;;;5075209;28;19935;-52
2022/06/03 03:58:37;;;;;;;;;;;19.70;97.10;;;;;;5074941;28;19954;-53
2022/06/03 04:01:25;;;;;;;;;;;19.70;97.10;;;;;;5075013;28;19912;-54
2022/06/03 04:03:50;;;;;;;;;;;19.70;97.00;;;;;;5075105;28;19959;-54
2022/06/03 04:06:34;;;;;;;;;;;19.80;97.00;;;;;;5074986;28;20345;-53
2022/06/03 04:09:19;;;;;;;;;;;19.80;97.00;;;;;;5056965;28;19942;-51
2022/06/03 04:11:44;;;;;;;;;;;19.80;97.00;;;;;;5074344;28;19915;-53
2022/06/03 04:14:28;;;;;;;;;;;19.80;97.00;;;;;;5074402;28;19909;-54
2022/06/03 04:17:12;;;;;;;;;;;19.80;97.00;;;;;;5074653;28;19909;-53
2022/06/03 04:19:44;;;;;;;;;;;19.80;97.00;;;;;;5074290;28;19908;-51
2022/06/03 04:22:28;;;;;;;;;;;19.80;97.00;;;;;;5074214;28;19916;-54
2022/06/03 04:25:09;;;;;;;;;;;19.80;97.00;;;;;;5073854;28;20252;-54
2022/06/03 04:27:54;;;;;;;;;;;19.80;97.00;;;;;;5074431;28;19909;-53
2022/06/03 04:30:45;;;;;;;;;;;19.80;97.00;;;;;;5056434;28;19917;-53
2022/06/03 04:33:26;;;;;;;;;;;19.80;97.00;;;;;;5056679;28;20362;-55
2022/06/03 04:36:10;;;;;;;;;;;19.80;97.00;;;;;;5074328;28;19909;-51
2022/06/03 04:38:44;;;;;;;;;;;19.80;97.00;;;;;;5074102;28;19908;-53
2022/06/03 04:41:29;;;;;;;;;;;19.80;97.00;;;;;;5073732;28;20275;-53
2022/06/03 04:43:57;;;;;;;;;;;19.80;97.30;;;;;;5073812;28;19912;-52
2022/06/03 04:46:22;;;;;;;;;;;19.80;97.00;;;;;;5074142;28;20422;-53
2022/06/03 04:49:07;;;;;;;;;;;19.80;97.00;;;;;;5073850;28;19908;-49
2022/06/03 04:51:51;;;;;;;;;;;19.80;97.00;;;;;;5073729;28;19909;-52
2022/06/03 04:54:35;;;;;;;;;;;19.90;97.10;;;;;;5073924;28;19927;-53
2022/06/03 04:57:09;;;;;;;;;;;19.80;97.10;;;;;;5073736;28;19908;-52
2022/06/03 04:59:43;;;;;;;;;;;19.80;97.10;;;;;;5073554;28;20318;-49
2022/06/03 05:02:11;;;;;;;;;;;19.80;97.10;;;;;;5073586;28;19949;-54
2022/06/03 05:04:52;;;;;;;;;;;19.80;97.10;;;;;;5073773;28;19912;-53
2022/06/03 05:07:20;;;;;;;;;;;19.80;97.10;;;;;;5073446;28;20335;-54
2022/06/03 05:09:51;;;;;;;;;;;19.80;97.10;;;;;;5073921;28;19908;-53
2022/06/03 05:12:37;;;;;;;;;;;19.80;97.10;;;;;;5073910;28;19908;-53
2022/06/03 05:15:02;;;;;;;;;;;19.80;97.10;;;;;;5073445;28;19908;-54
2022/06/03 05:17:34;;;;;;;;;;;19.80;97.10;;;;;;5073346;28;19912;-53
2022/06/03 05:20:11;;;;;;;;;;;19.80;97.10;;;;;;5073403;28;19975;-53
2022/06/03 05:22:40;;;;;;;;;;;19.80;97.10;;;;;;5073784;28;20015;-54
2022/06/03 05:25:31;;;;;;;;;;;19.80;97.10;;;;;;5073296;28;20018;-54
2022/06/03 05:28:12;;;;;;;;;;;19.80;97.10;;;;;;5073499;28;19916;-55
2022/06/03 05:31:09;;;;;;;;;;;19.80;97.10;;;;;;5073672;28;19999;-54
2022/06/03 05:33:54;;;;;;;;;;;19.80;97.10;;;;;;5073674;28;20007;-53
2022/06/03 05:36:22;;;;;;;;;;;19.80;97.10;;;;;;5075840;28;19912;-54
2022/06/03 05:39:04;;;;;;;;;;;19.80;97.10;;;;;;5077182;28;19909;-53
2022/06/03 05:44:59;;;;;;;;;;;19.80;97.10;;;;;;5077104;28;19954;-51
2022/06/03 05:47:28;;;;;;;;;;;19.80;97.10;;;;;;5071941;28;19912;-55
2022/06/03 05:49:54;;;;;;;;;;;19.80;97.10;;;;;;5077212;28;19913;-53
2022/06/03 05:52:27;;;;;;;;;;;19.80;97.10;;;;;;5059240;28;19913;-54
2022/06/03 05:55:15;;;;;;;;;;;19.80;97.10;;;;;;5076729;28;19924;-53
2022/06/03 05:57:53;;;;;;;;;;;19.80;97.10;;;;;;5077013;28;19908;-54
2022/06/03 06:00:41;;;;;;;;;;;19.90;97.10;;;;;;5076883;28;19978;-55
2022/06/03 06:03:15;;;;;;;;;;;19.80;97.10;;;;;;5076865;28;19916;-51
2022/06/03 06:05:44;;;;;;;;;;;19.80;97.10;;;;;;5076573;28;20358;-54
2022/06/03 06:08:14;;;;;;;;;;;19.80;97.10;;;;;;5076564;28;20390;-52
2022/06/03 06:10:47;;;;;;;;;;;19.80;97.10;;;;;;5077183;28;19962;-53
2022/06/03 06:13:27;;;;;;;;;;;19.80;97.10;;;;;;5077234;28;19908;-54
2022/06/03 06:15:53;;;;;;;;;;;19.80;97.10;;;;;;5076889;28;19916;-55
2022/06/03 06:18:24;;;;;;;;;;;19.80;97.10;;;;;;5076227;28;19913;-53
2022/06/03 06:20:56;;;;;;;;;;;19.80;97.10;;;;;;5076410;28;19939;-52
2022/06/03 06:23:42;;;;;;;;;;;19.80;97.10;;;;;;5076333;28;19912;-53
2022/06/03 06:26:13;;;;;;;;;;;19.80;97.10;;;;;;5076446;28;19908;-55
2022/06/03 06:28:57;;;;;;;;;;;19.80;97.10;;;;;;5075975;28;19994;-51
2022/06/03 06:31:41;;;;;;;;;;;19.80;97.10;;;;;;5076283;28;20313;-54
2022/06/03 06:34:09;;;;;;;;;;;19.80;97.10;;;;;;5076267;28;19967;-53
2022/06/03 06:36:38;;;;;;;;;;;19.80;97.10;;;;;;5075820;28;19915;-52
2022/06/03 06:39:07;;;;;;;;;;;19.80;97.10;;;;;;5076139;28;20320;-53
2022/06/03 06:41:42;;;;;;;;;;;19.80;97.10;;;;;;5075785;28;19912;-53
2022/06/03 06:44:19;;;;;;;;;;;19.80;97.10;;;;;;5076186;28;19913;-51
2022/06/03 06:47:03;;;;;;;;;;;19.80;97.10;;;;;;5074949;28;19908;-54
2022/06/03 06:49:32;;;;;;;;;;;19.80;97.10;;;;;;5076235;28;19915;-50
2022/06/03 06:52:06;;;;;;;;;;;19.80;97.10;;;;;;5075909;28;19954;-53
2022/06/03 06:54:41;;;;;;;;;;;19.80;97.10;;;;;;5076067;28;19920;-54
2022/06/03 06:57:12;;;;;;;;;;;19.80;97.10;;;;;;5075651;28;19914;-55
2022/06/03 06:59:40;;;;;;;;;;;19.80;97.10;;;;;;5075707;28;19932;-53
2022/06/03 07:02:11;;;;;;;;;;;19.80;97.10;;;;;;5075672;28;19912;-52
2022/06/03 07:04:41;;;;;;;;;;;19.80;97.20;;;;;;5075973;28;20311;-54
2022/06/03 07:07:42;;;;;;;;;;;19.80;97.10;;;;;;5057940;28;20019;-51
2022/06/03 07:10:13;;;;;;;;;;;19.80;97.10;;;;;;4974740;28;20344;-54
2022/06/03 07:12:42;;;;;;;;;;;19.80;97.10;;;;;;5058333;28;20003;-55
2022/06/03 07:15:20;;;;;;;;;;;19.80;97.10;;;;;;5057672;28;19938;-52
2022/06/03 07:21:14;;;;;;;;;;;19.80;97.10;;;;;;5013073;28;19942;-52
2022/06/03 07:23:42;;;;;;;;;;;19.80;97.10;;;;;;5046012;28;20057;-54
2022/06/03 07:26:17;;;;;;;;;;;19.80;97.10;;;;;;5075150;28;19912;-54
2022/06/03 07:28:53;;;;;;;;;;;19.80;97.10;;;;;;5075095;28;19913;-51
2022/06/03 07:31:25;;;;;;;;;;;19.90;97.20;;;;;;5075511;28;19996;-54
2022/06/03 07:33:57;;;;;;;;;;;19.90;97.10;;;;;;5074938;28;19908;-55
2022/06/03 07:36:28;;;;;;;;;;;19.90;97.10;;;;;;5074903;28;19950;-52
2022/06/03 07:38:54;;;;;;;;;;;19.90;97.10;;;;;;5075079;28;19912;-54
2022/06/03 07:41:24;;;;;;;;;;;19.90;97.10;;;;;;5074904;28;19913;-52
2022/06/03 07:44:02;;;;;;;;;;;19.90;97.10;;;;;;5074755;28;19919;-50
2022/06/03 07:46:38;;;;;;;;;;;19.90;97.10;;;;;;5074944;28;19966;-53
2022/06/03 07:49:05;;;;;;;;;;;19.90;97.10;;;;;;5074661;28;20313;-53
2022/06/03 07:51:38;;;;;;;;;;;19.90;97.10;;;;;;5074545;28;19909;-53
2022/06/03 07:54:05;;;;;;;;;;;19.90;97.00;;;;;;5074479;28;19920;-55
2022/06/03 07:56:33;;;;;;;;;;;19.90;97.00;;;;;;5075106;28;19966;-54
2022/06/03 07:59:00;;;;;;;;;;;19.90;97.00;;;;;;5074496;28;20023;-53
2022/06/03 08:01:25;;;;;;;;;;;20.00;97.00;;;;;;5074206;28;19965;-54
2022/06/03 08:03:53;;;;;;;;;;;20.00;97.00;;;;;;5073931;28;20301;-49
2022/06/03 08:06:27;;;;;;;;;;;20.00;97.00;;;;;;5074615;28;19920;-54
2022/06/03 08:11:41;;;;;;;;;;;20.00;97.00;;;;;;5074357;28;19916;-55
2022/06/03 08:14:06;;;;;;;;;;;20.00;96.90;;;;;;5074346;28;19908;-54
2022/06/03 08:16:36;;;;;;;;;;;20.10;96.90;;;;;;5074567;28;19915;-54
2022/06/03 08:19:07;;;;;;;;;;;20.10;96.90;;;;;;5074893;28;19909;-50
2022/06/03 08:21:54;;;;;;;;;;;20.10;96.90;;;;;;5074283;28;20007;-54
2022/06/03 08:24:21;;;;;;;;;;;20.10;96.90;;;;;;5074208;28;19919;-55
2022/06/03 08:26:49;;;;;;;;;;;20.10;96.90;;;;;;5074560;28;19909;-52
2022/06/03 08:29:33;;;;;;;;;;;20.10;96.90;;;;;;5074044;28;20002;-53
2022/06/03 08:31:59;;;;;;;;;;;20.10;96.90;;;;;;5073646;28;19918;-54
2022/06/03 08:34:33;;;;;;;;;;;20.10;96.90;;;;;;5056258;28;19995;-55
2022/06/03 08:36:59;;;;;;;;;;;20.10;96.90;;;;;;5074195;28;20015;-52
2022/06/03 08:39:26;;;;;;;;;;;20.10;96.90;;;;;;5073842;28;19952;-55
2022/06/03 08:41:59;;;;;;;;;;;20.20;96.90;;;;;;5074017;28;20012;-53
2022/06/03 08:44:41;;;;;;;;;;;20.10;96.80;;;;;;5074179;28;20354;-54
2022/06/03 08:47:06;;;;;;;;;;;20.10;96.80;;;;;;5073882;28;20381;-54
2022/06/03 08:49:51;;;;;;;;;;;20.20;96.80;;;;;;5074264;28;19999;-55
2022/06/03 08:52:20;;;;;;;;;;;20.20;96.90;;;;;;5073994;28;19913;-54
2022/06/03 08:54:49;;;;;;;;;;;20.20;96.80;;;;;;5073858;28;19920;-53
2022/06/03 08:57:27;;;;;;;;;;;20.20;96.80;;;;;;5073638;28;19991;-55
2022/06/03 08:59:57;;;;;;;;;;;20.20;96.90;;;;;;5073766;28;19908;-55
2022/06/03 09:02:30;;;;;;;;;;;20.20;96.80;;;;;;5073989;28;19912;-55
2022/06/03 09:05:02;;;;;;;;;;;20.20;96.80;;;;;;5073699;28;19966;-53
2022/06/03 09:07:38;;;;;;;;;;;20.20;96.80;;;;;;5074199;28;19978;-54
2022/06/03 09:10:13;;;;;;;;;;;20.20;96.80;;;;;;5072992;28;20327;-54
2022/06/03 09:12:39;;;;;;;;;;;20.20;96.80;;;;;;5073497;28;20363;-55
2022/06/03 09:15:20;;;;;;;;;;;20.20;96.80;;;;;;5073293;28;19955;-54
2022/06/03 09:17:54;;;;;;;;;;;20.20;97.00;;;;;;5073602;28;19914;-50
2022/06/03 09:20:22;;;;;;;;;;;20.20;96.80;;;;;;5073618;28;20003;-55
2022/06/03 09:22:50;;;;;;;;;;;20.20;96.80;;;;;;5073419;28;19959;-55
2022/06/03 09:25:17;;;;;;;;;;;20.20;96.80;;;;;;5073244;28;20351;-54
2022/06/03 09:27:45;;;;;;;;;;;20.20;96.80;;;;;;5073614;28;19908;-53
2022/06/03 09:30:12;;;;;;;;;;;20.20;96.80;;;;;;5073269;28;19909;-54
2022/06/03 09:32:41;;;;;;;;;;;20.30;96.80;;;;;;5072781;28;19943;-53
2022/06/03 09:35:09;;;;;;;;;;;20.20;96.80;;;;;;5073410;28;19909;-49
2022/06/03 09:37:37;;;;;;;;;;;20.30;96.80;;;;;;5073329;28;19915;-53
2022/06/03 09:40:06;;;;;;;;;;;20.20;96.80;;;;;;5055471;28;19984;-55
2022/06/03 09:42:32;;;;;;;;;;;20.30;96.80;;;;;;5073178;28;19912;-52
2022/06/03 09:45:00;;;;;;;;;;;20.30;96.80;;;;;;5072921;28;20402;-55
2022/06/03 09:47:25;;;;;;;;;;;20.30;96.80;;;;;;5073578;28;19909;-55
2022/06/03 09:49:52;;;;;;;;;;;20.30;96.80;;;;;;5072954;28;19958;-53
2022/06/03 09:52:22;;;;;;;;;;;20.30;96.80;;;;;;5073451;28;20319;-53
2022/06/03 09:54:48;;;;;;;;;;;20.30;96.80;;;;;;5073277;28;19927;-55
2022/06/03 09:57:30;;;;;;;;;;;20.30;96.80;;;;;;5055055;28;19909;-53
2022/06/03 10:00:17;;;;;;;;;;;20.30;96.80;;;;;;5072964;28;19951;-53
2022/06/03 10:02:43;;;;;;;;;;;20.30;96.80;;;;;;5073130;28;19964;-54
2022/06/03 10:05:10;;;;;;;;;;;20.30;96.80;;;;;;5073197;28;19920;-53
2022/06/03 10:07:36;;;;;;;;;;;20.30;96.80;;;;;;5055254;28;20363;-53
2022/06/03 10:12:49;;;;;;;;;;;20.30;96.80;;;;;;5073005;28;19915;-54
2022/06/03 10:15:38;;;;;;;;;;;20.30;96.80;;;;;;5073167;28;19909;-54
2022/06/03 10:18:15;;;;;;;;;;;20.30;96.80;;;;;;5072959;28;19915;-55
2022/06/03 10:20:42;;;;;;;;;;;20.30;96.80;;;;;;5072944;28;19912;-54
2022/06/03 10:23:08;;;;;;;;;;;20.30;96.80;;;;;;5076063;28;20362;-51
2022/06/03 10:25:36;;;;;;;;;;;20.30;96.80;;;;;;5076588;28;19916;-53
2022/06/03 10:28:02;;;;;;;;;;;20.30;96.80;;;;;;5076131;28;19909;-54
2022/06/03 10:30:28;;;;;;;;;;;20.30;96.80;;;;;;5076485;28;19909;-54
2022/06/03 10:32:54;;;;;;;;;;;20.30;96.80;;;;;;5076452;28;19909;-55
2022/06/03 10:35:26;;;;;;;;;;;20.30;96.80;;;;;;5076109;28;19973;-50
2022/06/03 10:38:10;;;;;;;;;;;20.30;96.80;;;;;;5076881;28;19920;-53
2022/06/03 10:40:39;;;;;;;;;;;20.30;96.80;;;;;;5076207;28;19912;-51
2022/06/03 10:43:05;;;;;;;;;;;20.40;96.80;;;;;;5076787;28;19979;-52
2022/06/03 10:45:32;;;;;;;;;;;20.30;96.80;;;;;;5076420;28;20304;-54
2022/06/03 10:47:58;;;;;;;;;;;20.30;96.80;;;;;;5076275;28;19912;-51
2022/06/03 10:50:25;;;;;;;;;;;20.30;96.80;;;;;;5058204;28;20311;-52
2022/06/03 11:01:23;;;;;;;;;;;20.30;96.80;;;;;;5075751;28;19937;-54
2022/06/03 11:03:50;;;;;;;;;;;20.30;96.90;;;;;;5075740;28;19916;-54
2022/06/03 11:06:18;;;;;;;;;;;20.30;96.90;;;;;;5075653;28;19916;-55
2022/06/03 11:08:46;;;;;;;;;;;20.30;96.90;;;;;;5075428;28;20295;-54
2022/06/03 11:11:12;;;;;;;;;;;20.30;96.90;;;;;;5075847;28;19916;-52
2022/06/03 11:13:39;;;;;;;;;;;20.30;96.90;;;;;;5075252;28;19909;-54
2022/06/03 11:16:24;;;;;;;;;;;20.30;96.90;;;;;;5075365;28;19908;-54
2022/06/03 11:18:50;;;;;;;;;;;20.30;96.90;;;;;;5075526;28;19920;-51
2022/06/03 11:21:18;;;;;;;;;;;20.30;96.90;;;;;;5075392;28;19912;-54
2022/06/03 11:23:43;;;;;;;;;;;20.30;96.90;;;;;;5075539;28;19933;-53
2022/06/03 11:26:09;;;;;;;;;;;20.30;96.90;;;;;;5075498;28;19913;-51
2022/06/03 11:28:38;;;;;;;;;;;20.30;96.90;;;;;;5075344;28;19908;-54
2022/06/03 11:31:10;;;;;;;;;;;20.30;96.90;;;;;;5075289;28;20254;-53
2022/06/03 11:33:41;;;;;;;;;;;20.30;96.90;;;;;;5056721;28;19908;-55
2022/06/03 11:36:10;;;;;;;;;;;20.30;96.90;;;;;;5074918;28;19915;-55
2022/06/03 11:38:39;;;;;;;;;;;20.30;96.90;;;;;;5075073;28;19909;-52
2022/06/03 11:41:27;;;;;;;;;;;20.30;96.90;;;;;;5075106;28;19975;-52
2022/06/03 11:43:56;;;;;;;;;;;20.30;97.00;;;;;;5060578;28;20283;-52
2022/06/03 11:46:28;;;;;;;;;;;20.30;97.00;;;;;;5075006;28;20389;-55
2022/06/03 11:48:54;;;;;;;;;;;20.30;97.00;;;;;;5074909;28;19916;-54
2022/06/03 11:51:20;;;;;;;;;;;20.30;97.00;;;;;;5075062;28;19913;-53
2022/06/03 11:53:49;;;;;;;;;;;20.30;97.00;;;;;;5074504;28;19928;-54
2022/06/03 11:56:17;;;;;;;;;;;20.30;97.00;;;;;;5074604;28;19915;-55
2022/06/03 11:58:43;;;;;;;;;;;20.30;97.00;;;;;;5074743;28;19908;-54
2022/06/03 12:01:11;;;;;;;;;;;20.30;97.00;;;;;;5074528;28;19919;-52
2022/06/03 12:03:37;;;;;;;;;;;20.30;97.00;;;;;;5074669;28;19912;-54
2022/06/03 12:06:18;;;;;;;;;;;20.30;97.10;;;;;;5074277;28;19931;-55
2022/06/03 12:09:00;;;;;;;;;;;20.30;97.10;;;;;;5074371;28;19908;-56
2022/06/03 12:14:35;;;;;;;;;;;20.30;97.10;;;;;;5074671;28;19919;-52
2022/06/03 12:17:21;;;;;;;;;;;20.30;97.10;;;;;;5074152;28;19916;-56
2022/06/03 12:19:48;;;;;;;;;;;20.40;97.10;;;;;;5074215;28;20411;-52
2022/06/03 12:22:14;;;;;;;;;;;20.40;97.10;;;;;;5074159;28;19919;-52
2022/06/03 12:24:41;;;;;;;;;;;20.30;97.10;;;;;;5074363;28;19936;-54
2022/06/03 12:27:11;;;;;;;;;;;20.30;97.10;;;;;;5074335;28;19908;-55
2022/06/03 12:29:43;;;;;;;;;;;20.30;97.10;;;;;;5073672;28;19912;-55
2022/06/03 12:32:20;;;;;;;;;;;20.30;97.10;;;;;;5074138;28;19912;-52
2022/06/03 12:34:45;;;;;;;;;;;20.30;97.10;;;;;;5073964;28;19916;-53
2022/06/03 12:37:22;;;;;;;;;;;20.40;97.20;;;;;;5074129;28;20255;-52
2022/06/03 12:40:00;;;;;;;;;;;20.30;97.10;;;;;;5074442;28;19915;-55
2022/06/03 12:42:28;;;;;;;;;;;20.30;97.40;;;;;;5073610;28;20197;-54
2022/06/03 12:44:56;;;;;;;;;;;20.30;97.10;;;;;;5055532;28;20279;-53
2022/06/03 12:47:31;;;;;;;;;;;20.30;97.20;;;;;;5074052;28;20001;-52
2022/06/03 12:50:16;;;;;;;;;;;20.40;97.20;;;;;;5073477;28;19919;-53
2022/06/03 12:52:43;;;;;;;;;;;20.30;97.20;;;;;;5073720;28;19962;-55
2022/06/03 12:55:09;;;;;;;;;;;20.40;97.20;;;;;;5073628;28;19960;-53
2022/06/03 12:57:53;;;;;;;;;;;20.30;97.20;;;;;;5073594;28;20025;-51
2022/06/03 13:00:19;;;;;;;;;;;20.40;97.20;;;;;;5073191;28;19940;-54
2022/06/03 13:02:49;;;;;;;;;;;20.40;97.20;;;;;;5073662;28;19982;-54
2022/06/03 13:05:34;;;;;;;;;;;20.30;97.20;;;;;;5055592;28;19912;-53
2022/06/03 13:08:00;;;;;;;;;;;20.40;97.20;;;;;;5056250;28;19954;-51
2022/06/03 13:10:27;;;;;;;;;;;20.40;97.20;;;;;;5073711;28;19912;-50
2022/06/03 13:12:54;;;;;;;;;;;20.40;97.20;;;;;;5073536;28;19915;-53
2022/06/03 13:15:19;;;;;;;;;;;20.40;97.20;;;;;;5073478;28;19912;-55
2022/06/03 13:18:24;;;;;;;;;;;20.40;97.20;;;;;;5055316;28;19908;-55
2022/06/03 13:21:09;;;;;;;;;;;20.40;97.30;;;;;;5073046;28;19955;-55
2022/06/03 13:23:45;;;;;;;;;;;20.40;97.30;;;;;;5073169;28;19913;-54
2022/06/03 13:26:23;;;;;;;;;;;20.40;97.30;;;;;;5073173;28;19909;-54
2022/06/03 13:28:49;;;;;;;;;;;20.40;97.30;;;;;;5073088;28;19908;-52
2022/06/03 13:31:16;;;;;;;;;;;20.40;97.30;;;;;;5073533;28;19932;-53
2022/06/03 13:34:00;;;;;;;;;;;20.40;97.30;;;;;;5073558;28;20359;-55
2022/06/03 13:36:49;;;;;;;;;;;20.40;97.30;;;;;;5055421;28;19909;-54
2022/06/03 13:39:23;;;;;;;;;;;20.40;97.30;;;;;;5060144;28;19985;-53
2022/06/03 13:44:37;;;;;;;;;;;20.40;97.30;;;;;;5073236;28;19919;-53
2022/06/03 13:47:06;;;;;;;;;;;20.40;97.30;;;;;;5073452;28;19954;-53
2022/06/03 13:49:32;;;;;;;;;;;20.40;97.30;;;;;;5073338;28;20374;-53
2022/06/03 13:52:06;;;;;;;;;;;20.40;97.30;;;;;;5055522;28;19913;-52
2022/06/03 13:54:37;;;;;;;;;;;20.30;97.30;;;;;;5073112;28;19927;-51
2022/06/03 13:57:09;;;;;;;;;;;20.40;97.40;;;;;;5075076;28;19955;-53
2022/06/03 13:59:38;;;;;;;;;;;20.40;97.40;;;;;;5077309;28;19913;-52
2022/06/03 14:02:14;;;;;;;;;;;20.30;97.40;;;;;;5076996;28;19920;-54
2022/06/03 14:04:47;;;;;;;;;;;20.40;97.40;;;;;;5077299;28;19920;-52
2022/06/03 14:07:13;;;;;;;;;;;20.40;97.60;;;;;;5076621;28;19912;-52
2022/06/03 14:09:51;;;;;;;;;;;20.30;97.40;;;;;;5077088;28;19908;-55
2022/06/03 14:12:24;;;;;;;;;;;20.30;97.40;;;;;;5076977;28;20359;-53
2022/06/03 14:14:50;;;;;;;;;;;20.40;97.40;;;;;;5076785;28;19932;-53
2022/06/03 14:17:18;;;;;;;;;;;20.40;97.40;;;;;;5076996;28;20351;-53
2022/06/03 14:20:05;;;;;;;;;;;20.30;97.40;;;;;;5076614;28;19912;-53
2022/06/03 14:22:34;;;;;;;;;;;20.40;97.40;;;;;;5076583;28;19913;-52
2022/06/03 14:25:18;;;;;;;;;;;20.40;97.40;;;;;;5058708;28;19947;-52
2022/06/03 14:27:49;;;;;;;;;;;20.40;97.40;;;;;;5076460;28;19915;-52
2022/06/03 14:30:27;;;;;;;;;;;20.40;97.40;;;;;;5076673;28;19909;-52
2022/06/03 14:32:55;;;;;;;;;;;20.40;97.50;;;;;;5058594;28;19909;-55
2022/06/03 14:35:26;;;;;;;;;;;20.40;97.40;;;;;;5076349;28;19909;-53
2022/06/03 14:37:55;;;;;;;;;;;20.40;97.50;;;;;;5058403;28;19909;-55
2022/06/03 14:40:23;;;;;;;;;;;20.40;97.50;;;;;;5058313;28;20007;-54
2022/06/03 14:42:49;;;;;;;;;;;20.40;97.40;;;;;;5076475;28;19991;-53
2022/06/03 14:45:15;;;;;;;;;;;20.40;97.40;;;;;;5076005;28;19912;-52
2022/06/03 14:47:46;;;;;;;;;;;20.40;97.40;;;;;;5076148;28;19909;-52
2022/06/03 14:50:23;;;;;;;;;;;20.40;97.40;;;;;;5076394;28;19909;-55
2022/06/03 14:52:53;;;;;;;;;;;20.40;97.40;;;;;;5076240;28;19970;-55
2022/06/03 14:55:18;;;;;;;;;;;20.40;97.50;;;;;;5076139;28;19920;-53
2022/06/03 14:57:46;;;;;;;;;;;20.40;97.50;;;;;;5076468;28;19908;-53
2022/06/03 15:00:12;;;;;;;;;;;20.40;97.50;;;;;;5075992;28;19962;-49
2022/06/03 15:02:43;;;;;;;;;;;20.40;97.50;;;;;;5057478;28;20248;-54
2022/06/03 15:05:32;;;;;;;;;;;20.40;97.50;;;;;;5075569;28;19913;-53
2022/06/03 15:08:17;;;;;;;;;;;20.40;97.40;;;;;;5075119;28;19926;-53
2022/06/03 15:10:46;;;;;;;;;;;20.40;97.40;;;;;;5076187;28;19915;-51
2022/06/03 15:13:21;;;;;;;;;;;20.40;97.40;;;;;;5075171;28;19999;-55
2022/06/03 15:15:48;;;;;;;;;;;20.40;97.40;;;;;;5075436;28;19909;-53
2022/06/03 15:18:16;;;;;;;;;;;20.40;97.50;;;;;;5057748;28;19916;-54
2022/06/03 15:21:00;;;;;;;;;;;20.40;97.40;;;;;;5075533;28;19908;-53
2022/06/03 15:23:26;;;;;;;;;;;20.40;97.40;;;;;;5075244;28;19931;-54